createdAt,value
2023-03-26T00:00:26.525Z,98699.41
2023-03-26T00:05:49.672Z,98694.11
2023-03-26T00:10:52.580Z,98692.11
2023-03-26T00:15:55.625Z,98696.27
2023-03-26T00:21:00.249Z,98693.67
2023-03-26T00:26:10.580Z,98686.69
2023-03-26T00:31:15.275Z,98679.58
2023-03-26T00:36:20.160Z,98681.65
2023-03-26T00:41:26.376Z,98674.33
2023-03-26T00:46:31.623Z,98674.29
2023-03-26T00:51:35.121Z,98670.11
2023-03-26T00:56:39.119Z,98663.30
2023-03-26T01:01:42.385Z,98662.45
2023-03-26T01:06:45.283Z,98663.66
2023-03-26T01:11:49.819Z,98663.13
2023-03-26T01:16:56.292Z,98662.36
2023-03-26T01:22:00.861Z,98663.11
2023-03-26T01:27:09.921Z,98658.73
2023-03-26T01:32:30.985Z,98658.29
2023-03-26T01:37:53.527Z,98653.56
2023-03-26T01:43:22.177Z,98642.52
2023-03-26T01:48:41.338Z,98638.52
2023-03-26T01:53:48.049Z,98626.86
2023-03-26T01:59:03.844Z,98622.73
2023-03-26T02:04:19.182Z,98623.36
2023-03-26T02:09:29.080Z,98617.08
2023-03-26T02:14:32.081Z,98613.02
2023-03-26T02:19:34.828Z,98610.30
2023-03-26T02:24:38.948Z,98608.32
2023-03-26T02:29:42.692Z,98606.11
2023-03-26T02:34:45.890Z,98605.15
2023-03-26T02:39:48.627Z,98604.43
2023-03-26T02:44:51.391Z,98599.39
2023-03-26T02:49:54.284Z,98598.89
2023-03-26T02:54:57.626Z,98598.48
2023-03-26T03:00:05.144Z,98597.60
2023-03-26T03:05:08.540Z,98591.22
2023-03-26T03:10:13.946Z,98587.61
2023-03-26T03:15:16.777Z,98584.86
2023-03-26T03:20:19.619Z,98586.16
2023-03-26T03:25:23.472Z,98585.60
2023-03-26T03:30:26.291Z,98579.68
2023-03-26T03:35:30.340Z,98584.01
2023-03-26T03:40:33.223Z,98583.42
2023-03-26T03:45:36.335Z,98581.43
2023-03-26T03:50:39.092Z,98576.56
2023-03-26T03:55:54.409Z,98573.80
2023-03-26T04:01:01.018Z,98571.50
2023-03-26T04:06:07.056Z,98578.37
2023-03-26T04:11:09.935Z,98577.73
2023-03-26T04:16:12.883Z,98576.00
2023-03-26T04:21:16.047Z,98575.44
2023-03-26T04:26:20.040Z,98570.87
2023-03-26T04:31:29.476Z,98563.85
2023-03-26T04:36:34.454Z,98562.89
2023-03-26T04:41:37.533Z,98555.72
2023-03-26T04:46:43.863Z,98553.81
2023-03-26T04:51:47.574Z,98546.91
2023-03-26T04:56:52.359Z,98545.43
2023-03-26T05:01:56.967Z,98543.95
2023-03-26T05:07:00.900Z,98543.23
2023-03-26T05:12:03.921Z,98543.35
2023-03-26T05:17:06.697Z,98546.17
2023-03-26T05:22:09.495Z,98540.84
2023-03-26T05:27:17.077Z,98542.05
2023-03-26T05:32:19.890Z,98534.08
2023-03-26T05:37:24.690Z,98536.03
2023-03-26T05:42:27.533Z,98531.20
2023-03-26T05:47:30.311Z,98529.77
2023-03-26T05:52:33.595Z,98528.00
2023-03-26T05:57:36.741Z,98525.05
2023-03-26T06:02:39.721Z,98532.03
2023-03-26T06:07:42.669Z,98530.86
2023-03-26T06:12:45.496Z,98530.92
2023-03-26T06:17:48.520Z,98530.29
2023-03-26T06:22:51.420Z,98530.36
2023-03-26T06:27:54.174Z,98529.50
2023-03-26T06:32:56.979Z,98527.36
2023-03-26T06:38:00.100Z,98523.20
2023-03-26T06:43:09.667Z,98524.55
2023-03-26T06:48:13.590Z,98520.47
2023-03-26T06:53:16.388Z,98522.46
2023-03-26T06:58:19.390Z,98526.19
2023-03-26T07:03:23.636Z,98524.27
2023-03-26T07:08:26.760Z,98525.30
2023-03-26T07:13:29.617Z,98521.19
2023-03-26T07:18:32.789Z,98521.45
2023-03-26T07:23:36.330Z,98522.14
2023-03-26T07:29:03.699Z,98522.50
2023-03-26T07:34:24.675Z,98521.71
2023-03-26T07:39:44.890Z,98522.90
2023-03-26T07:44:58.701Z,98515.84
2023-03-26T07:50:02.560Z,98516.99
2023-03-26T07:55:06.434Z,98514.62
2023-03-26T08:00:32.312Z,98515.55
2023-03-26T08:05:43.844Z,98514.92
2023-03-26T08:11:15.881Z,98512.89
2023-03-26T08:16:36.846Z,98511.63
2023-03-26T08:21:55.732Z,98512.58
2023-03-26T08:27:13.600Z,98509.31
2023-03-26T08:32:19.266Z,98503.18
2023-03-26T08:37:24.036Z,98511.02
2023-03-26T08:42:40.827Z,98507.97
2023-03-26T08:48:11.502Z,98509.89
2023-03-26T08:53:32.320Z,98502.77
2023-03-26T08:58:43.976Z,98499.52
2023-03-26T09:04:11.880Z,98503.91
2023-03-26T09:09:20.607Z,98501.03
2023-03-26T09:14:42.368Z,98500.52
2023-03-26T09:19:52.648Z,98502.97
2023-03-26T09:25:14.439Z,98509.05
2023-03-26T09:30:31.928Z,98513.80
2023-03-26T09:36:19.857Z,98518.41
2023-03-26T09:42:01.130Z,98521.17
2023-03-26T09:47:25.464Z,98524.86
2023-03-26T09:52:40.574Z,98526.38
2023-03-26T09:57:53.995Z,98522.83
2023-03-26T10:03:12.276Z,98517.67
2023-03-26T10:08:30.232Z,98517.98
2023-03-26T10:13:50.526Z,98519.27
2023-03-26T10:19:12.331Z,98521.05
2023-03-26T10:24:23.972Z,98516.73
2023-03-26T10:29:48.549Z,98518.14
2023-03-26T10:35:30.437Z,98513.27
2023-03-26T10:41:06.846Z,98517.20
2023-03-26T10:46:34.358Z,98517.48
2023-03-26T10:51:58.562Z,98514.98
2023-03-26T10:57:06.848Z,98507.81
2023-03-26T11:02:38.572Z,98516.81
2023-03-26T11:08:03.845Z,98522.46
2023-03-26T11:13:41.801Z,98523.11
2023-03-26T11:19:08.265Z,98522.96
2023-03-26T11:24:49.104Z,98522.73
2023-03-26T11:30:26.694Z,98526.89
2023-03-26T11:35:45.919Z,98528.90
2023-03-26T11:40:56.470Z,98529.55
2023-03-26T11:46:03.468Z,98526.59
2023-03-26T11:51:34.442Z,98524.66
2023-03-26T11:57:04.984Z,98523.09
2023-03-26T12:02:12.208Z,98518.70
2023-03-26T12:07:33.108Z,98519.16
2023-03-26T12:12:41.924Z,98529.17
2023-03-26T12:17:47.407Z,98548.18
2023-03-26T12:22:52.383Z,98556.86
2023-03-26T12:28:02.957Z,98575.66
2023-03-26T12:33:40.403Z,98590.77
2023-03-26T12:38:43.338Z,98588.38
2023-03-26T12:44:54.976Z,98589.92
2023-03-26T12:49:45.016Z,98579.15
2023-03-26T12:54:56.933Z,98570.98
2023-03-26T13:00:37.645Z,98563.14
2023-03-26T13:05:55.749Z,98558.27
2023-03-26T13:11:20.991Z,98555.94
2023-03-26T13:16:29.984Z,98553.00
2023-03-26T13:22:01.116Z,98546.43
2023-03-26T13:27:27.821Z,98547.81
2023-03-26T13:33:03.398Z,98543.24
2023-03-26T13:38:30.096Z,98540.52
2023-03-26T13:43:54.921Z,98542.17
2023-03-26T13:49:10.767Z,98543.83
2023-03-26T13:54:37.221Z,98548.82
2023-03-26T14:00:00.587Z,98551.48
2023-03-26T14:05:30.859Z,98558.40
2023-03-26T14:10:40.806Z,98557.95
2023-03-26T14:15:48.069Z,98557.77
2023-03-26T14:21:28.961Z,98557.45
2023-03-26T14:26:37.971Z,98559.79
2023-03-26T14:32:06.857Z,98566.41
2023-03-26T14:37:39.677Z,98567.90
2023-03-26T14:42:56.587Z,98583.68
2023-03-26T14:48:28.962Z,98590.69
2023-03-26T14:53:37.301Z,98592.06
2023-03-26T14:59:14.628Z,98592.05
2023-03-26T15:04:41.689Z,98595.63
2023-03-26T15:10:22.755Z,98598.54
2023-03-26T15:15:38.453Z,98603.98
2023-03-26T15:21:10.307Z,98609.96
2023-03-26T15:26:23.496Z,98612.76
2023-03-26T15:31:43.289Z,98609.70
2023-03-26T15:37:22.499Z,98607.94
2023-03-26T15:42:56.630Z,98607.13
2023-03-26T15:48:13.017Z,98612.38
2023-03-26T15:53:23.609Z,98616.63
2023-03-26T15:58:30.874Z,98621.47
2023-03-26T16:03:54.874Z,98623.38
2023-03-26T16:09:08.115Z,98616.01
2023-03-26T16:14:24.688Z,98619.23
2023-03-26T16:19:36.495Z,98628.58
2023-03-26T16:24:48.414Z,98641.30
2023-03-26T16:30:00.683Z,98645.66
2023-03-26T16:35:25.522Z,98651.66
2023-03-26T16:40:37.777Z,98656.41
2023-03-26T16:45:59.222Z,98654.59
2023-03-26T16:51:39.283Z,98652.98
2023-03-26T16:56:57.620Z,98646.11
2023-03-26T17:02:09.575Z,98646.05
2023-03-26T17:07:17.840Z,98655.95
2023-03-26T17:12:37.022Z,98657.61
2023-03-26T17:18:05.388Z,98668.27
2023-03-26T17:23:36.006Z,98680.77
2023-03-26T17:28:55.308Z,98685.55
2023-03-26T17:34:28.585Z,98690.56
2023-03-26T17:39:40.396Z,98701.60
2023-03-26T17:44:49.065Z,98703.64
2023-03-26T17:50:00.295Z,98714.02
2023-03-26T17:55:03.826Z,98708.09
2023-03-26T18:00:09.413Z,98709.16
2023-03-26T18:05:15.424Z,98709.09
2023-03-26T18:10:38.812Z,98711.15
2023-03-26T18:16:15.523Z,98716.60
2023-03-26T18:21:29.520Z,98721.77
2023-03-26T18:26:46.096Z,98725.04
2023-03-26T18:31:55.501Z,98720.65
2023-03-26T18:37:19.634Z,98719.06
2023-03-26T18:42:24.440Z,98718.55
2023-03-26T18:47:30.479Z,98717.77
2023-03-26T18:52:33.497Z,98713.46
2023-03-26T18:57:36.814Z,98708.52
2023-03-26T19:02:39.754Z,98708.66
2023-03-26T19:07:46.638Z,98704.34
2023-03-26T19:12:58.133Z,98709.29
2023-03-26T19:18:07.561Z,98720.91
2023-03-26T19:23:15.381Z,98731.46
2023-03-26T19:28:33.616Z,98729.41
2023-03-26T19:33:39.409Z,98724.81
2023-03-26T19:38:54.053Z,98724.14
2023-03-26T19:44:01.320Z,98727.55
2023-03-26T19:49:04.365Z,98727.37
2023-03-26T19:54:16.161Z,98723.29
2023-03-26T19:59:19.395Z,98731.20
2023-03-26T20:04:22.182Z,98736.35
2023-03-26T20:09:25.544Z,98735.37
2023-03-26T20:14:31.405Z,98731.98
2023-03-26T20:19:35.443Z,98724.33
2023-03-26T20:24:38.305Z,98721.52
2023-03-26T20:29:42.705Z,98718.40
2023-03-26T20:34:49.374Z,98722.06
2023-03-26T20:39:52.179Z,98719.45
2023-03-26T20:44:55.141Z,98721.90
2023-03-26T20:49:57.917Z,98722.67
2023-03-26T20:55:00.686Z,98717.81
2023-03-26T21:00:09.236Z,98719.23
2023-03-26T21:05:24.211Z,98724.45
2023-03-26T21:10:30.785Z,98721.48
2023-03-26T21:15:34.336Z,98724.85
2023-03-26T21:20:37.967Z,98731.78
2023-03-26T21:25:55.840Z,98737.68
2023-03-26T21:31:01.377Z,98739.64
2023-03-26T21:36:04.617Z,98734.24
2023-03-26T21:41:07.850Z,98731.55
2023-03-26T21:46:11.825Z,98733.38
2023-03-26T21:51:14.999Z,98733.91
2023-03-26T21:56:49.948Z,98733.12
2023-03-26T22:02:04.621Z,98734.13
2023-03-26T22:07:14.684Z,98733.36
2023-03-26T22:12:18.241Z,98735.42
2023-03-26T22:17:22.677Z,98735.84
2023-03-26T22:22:26.317Z,98734.42
2023-03-26T22:27:29.149Z,98730.52
2023-03-26T22:32:34.366Z,98729.55
2023-03-26T22:37:37.846Z,98733.89
2023-03-26T22:42:41.573Z,98732.80
2023-03-26T22:47:45.067Z,98743.00
2023-03-26T22:52:50.377Z,98744.63
2023-03-26T22:57:53.290Z,98751.09
2023-03-26T23:03:00.411Z,98749.82
2023-03-26T23:08:04.310Z,98755.00
2023-03-26T23:13:07.570Z,98755.77
2023-03-26T23:18:12.052Z,98758.85
2023-03-26T23:23:14.819Z,98755.05
2023-03-26T23:28:18.336Z,98756.04
2023-03-26T23:33:23.002Z,98753.75
2023-03-26T23:38:29.264Z,98748.79
2023-03-26T23:43:55.495Z,98734.16
2023-03-26T23:49:05.144Z,98739.94
2023-03-26T23:54:08.868Z,98743.06
2023-03-26T23:59:11.772Z,98741.27
